createdAt,value
2018-11-07T00:00:01.367Z,73.62
2018-11-07T00:02:06.246Z,73.01
2018-11-07T00:04:10.909Z,73.14
2018-11-07T00:06:15.720Z,72.99
2018-11-07T00:08:20.794Z,73.08
2018-11-07T00:10:25.341Z,73.26
2018-11-07T00:12:30.189Z,73.08
2018-11-07T00:14:35.169Z,72.85
2018-11-07T00:16:39.968Z,72.77
2018-11-07T00:18:44.766Z,72.75
2018-11-07T00:20:49.596Z,72.75
2018-11-07T00:22:54.809Z,72.35
2018-11-07T00:24:59.654Z,72.05
2018-11-07T00:27:04.621Z,72.10
2018-11-07T00:29:09.620Z,71.63
2018-11-07T00:31:14.367Z,71.45
2018-11-07T00:35:28.720Z,71.40
2018-11-07T00:37:33.658Z,71.29
2018-11-07T00:39:38.969Z,70.66
2018-11-07T00:41:43.757Z,70.82
2018-11-07T00:43:48.425Z,71.35
2018-11-07T00:45:53.293Z,71.26
2018-11-07T00:47:58.128Z,71.19
2018-11-07T00:50:02.809Z,70.75
2018-11-07T00:52:07.724Z,70.80
2018-11-07T00:54:12.760Z,70.15
2018-11-07T00:56:17.565Z,69.86
2018-11-07T00:58:22.320Z,69.60
2018-11-07T01:00:27.042Z,69.05
2018-11-07T01:02:31.856Z,68.95
2018-11-07T01:04:37.117Z,69.10
2018-11-07T01:06:41.803Z,69.22
2018-11-07T01:08:47.113Z,69.18
2018-11-07T01:10:51.957Z,69.45
2018-11-07T01:12:56.810Z,69.49
2018-11-07T01:15:01.591Z,69.21
2018-11-07T01:17:07.579Z,69.52
2018-11-07T01:19:12.312Z,68.88
2018-11-07T01:21:17.131Z,69.16
2018-11-07T01:23:22.825Z,69.04
2018-11-07T01:25:27.731Z,69.18
2018-11-07T01:27:32.470Z,68.73
2018-11-07T01:29:37.280Z,68.43
2018-11-07T01:31:43.046Z,68.63
2018-11-07T01:33:47.827Z,68.98
2018-11-07T01:35:52.549Z,69.07
2018-11-07T01:37:57.291Z,68.66
2018-11-07T01:40:02.213Z,68.90
2018-11-07T01:42:07.765Z,68.80
2018-11-07T01:44:12.447Z,68.98
2018-11-07T01:46:17.343Z,69.27
2018-11-07T01:48:22.892Z,69.29
2018-11-07T01:50:28.231Z,69.73
2018-11-07T01:52:33.424Z,70.29
2018-11-07T01:54:38.379Z,70.24
2018-11-07T01:56:43.293Z,70.31
2018-11-07T01:58:48.067Z,70.46
2018-11-07T02:00:52.866Z,69.98
2018-11-07T02:02:57.660Z,70.09
2018-11-07T02:05:02.352Z,70.73
2018-11-07T02:07:07.706Z,70.78
2018-11-07T02:09:12.476Z,70.08
2018-11-07T02:11:17.266Z,70.42
2018-11-07T02:13:21.974Z,71.05
2018-11-07T02:15:26.681Z,70.82
2018-11-07T02:17:31.346Z,71.06
2018-11-07T02:19:36.400Z,71.41
2018-11-07T02:21:41.035Z,71.76
2018-11-07T02:23:45.826Z,71.85
2018-11-07T02:25:50.526Z,71.85
2018-11-07T02:27:55.335Z,72.36
2018-11-07T02:30:00.143Z,72.23
2018-11-07T02:32:05.052Z,72.58
2018-11-07T02:34:09.746Z,72.26
2018-11-07T02:36:14.575Z,72.65
2018-11-07T02:38:19.384Z,72.72
2018-11-07T02:40:24.103Z,72.94
2018-11-07T02:42:28.837Z,72.96
2018-11-07T02:44:33.534Z,72.76
2018-11-07T02:46:38.226Z,72.75
2018-11-07T02:48:42.904Z,72.71
2018-11-07T02:50:47.621Z,72.86
2018-11-07T02:52:52.370Z,73.13
2018-11-07T02:54:57.104Z,73.33
2018-11-07T02:57:01.827Z,73.60
2018-11-07T02:59:06.654Z,73.82
2018-11-07T03:01:11.399Z,74.15
2018-11-07T03:03:16.018Z,74.17
2018-11-07T03:05:20.821Z,74.19
2018-11-07T03:07:26.674Z,74.46
2018-11-07T03:09:32.253Z,74.59
2018-11-07T03:11:37.165Z,74.39
2018-11-07T03:13:41.941Z,74.51
2018-11-07T03:15:46.663Z,74.70
2018-11-07T03:17:51.423Z,73.66
2018-11-07T03:19:56.093Z,73.30
2018-11-07T03:22:00.785Z,73.77
2018-11-07T03:24:05.821Z,73.65
2018-11-07T03:26:10.506Z,73.83
2018-11-07T03:28:15.250Z,73.67
2018-11-07T03:30:20.030Z,74.00
2018-11-07T03:32:24.706Z,74.08
2018-11-07T03:34:29.499Z,74.37
2018-11-07T03:36:34.192Z,74.27
2018-11-07T03:38:39.036Z,74.28
2018-11-07T03:40:43.782Z,74.27
2018-11-07T03:42:48.456Z,74.14
2018-11-07T03:44:53.082Z,73.99
2018-11-07T03:46:57.753Z,73.42
2018-11-07T03:49:02.431Z,72.96
2018-11-07T03:51:07.099Z,72.99
2018-11-07T03:53:11.977Z,71.97
2018-11-07T03:55:16.586Z,71.91
2018-11-07T03:57:21.328Z,71.55
2018-11-07T03:59:26.134Z,71.76
2018-11-07T04:01:30.817Z,71.91
2018-11-07T04:03:35.627Z,71.79
2018-11-07T04:05:40.389Z,72.06
2018-11-07T04:07:45.072Z,71.82
2018-11-07T04:09:49.940Z,71.79
2018-11-07T04:11:54.707Z,71.69
2018-11-07T04:13:59.406Z,72.01
2018-11-07T04:16:04.095Z,72.56
2018-11-07T04:18:08.893Z,72.38
2018-11-07T04:20:13.524Z,72.44
2018-11-07T04:22:18.295Z,72.29
2018-11-07T04:24:23.081Z,72.13
2018-11-07T04:26:27.777Z,72.11
2018-11-07T04:28:32.700Z,72.50
2018-11-07T04:30:37.567Z,71.89
2018-11-07T04:32:43.035Z,71.86
2018-11-07T04:34:47.701Z,72.05
2018-11-07T04:36:52.357Z,71.60
2018-11-07T04:38:57.233Z,72.17
2018-11-07T04:41:02.005Z,71.81
2018-11-07T04:43:07.381Z,72.09
2018-11-07T04:45:12.022Z,72.12
2018-11-07T04:47:16.770Z,71.69
2018-11-07T04:49:21.506Z,71.88
2018-11-07T04:51:26.264Z,71.88
2018-11-07T04:53:30.972Z,72.03
2018-11-07T04:55:35.787Z,71.47
2018-11-07T04:57:40.643Z,71.74
2018-11-07T04:59:45.347Z,71.93
2018-11-07T05:01:50.059Z,71.67
2018-11-07T05:03:54.749Z,71.72
2018-11-07T05:05:59.672Z,72.00
2018-11-07T05:08:04.623Z,71.79
2018-11-07T05:10:10.719Z,71.54
2018-11-07T05:12:15.422Z,72.20
2018-11-07T05:14:20.175Z,72.58
2018-11-07T05:16:25.136Z,72.68
2018-11-07T05:18:30.087Z,72.32
2018-11-07T05:20:34.807Z,72.53
2018-11-07T05:22:39.534Z,72.92
2018-11-07T05:24:44.513Z,73.63
2018-11-07T05:26:49.347Z,73.62
2018-11-07T05:28:54.135Z,73.88
2018-11-07T05:30:59.127Z,73.69
2018-11-07T05:33:03.951Z,73.83
2018-11-07T05:35:09.209Z,74.05
2018-11-07T05:37:14.109Z,74.19
2018-11-07T05:39:18.897Z,73.88
2018-11-07T05:41:23.788Z,74.09
2018-11-07T05:43:28.597Z,74.08
2018-11-07T05:45:33.410Z,73.69
2018-11-07T05:47:38.226Z,72.92
2018-11-07T05:49:42.953Z,73.02
2018-11-07T05:51:47.764Z,73.37
2018-11-07T05:53:52.493Z,73.73
2018-11-07T05:55:57.302Z,73.76
2018-11-07T05:58:02.113Z,73.97
2018-11-07T06:00:09.270Z,74.22
2018-11-07T06:02:14.042Z,74.07
2018-11-07T06:04:18.827Z,73.98
2018-11-07T06:06:23.676Z,73.88
2018-11-07T06:08:28.361Z,73.61
2018-11-07T06:10:33.300Z,73.01
2018-11-07T06:12:38.461Z,72.96
2018-11-07T06:14:45.070Z,73.21
2018-11-07T06:16:50.009Z,73.55
2018-11-07T06:18:54.761Z,73.54
2018-11-07T06:20:59.615Z,73.74
2018-11-07T06:23:04.463Z,73.11
2018-11-07T06:25:09.280Z,73.42
2018-11-07T06:27:14.015Z,73.22
2018-11-07T06:29:18.804Z,72.99
2018-11-07T06:31:23.550Z,73.18
2018-11-07T06:33:28.461Z,73.67
2018-11-07T06:35:33.273Z,73.88
2018-11-07T06:37:38.060Z,73.92
2018-11-07T06:39:42.899Z,73.31
2018-11-07T06:41:47.683Z,73.34
2018-11-07T06:43:52.463Z,73.08
2018-11-07T06:45:57.198Z,73.13
2018-11-07T06:48:02.043Z,73.08
2018-11-07T06:50:11.863Z,73.21
2018-11-07T06:52:16.571Z,73.69
2018-11-07T06:54:21.329Z,73.23
2018-11-07T06:56:26.342Z,73.23
2018-11-07T06:58:31.114Z,73.18
2018-11-07T07:00:36.442Z,73.16
2018-11-07T07:02:41.133Z,73.06
2018-11-07T07:04:45.882Z,72.95
2018-11-07T07:06:50.589Z,72.14
2018-11-07T07:08:55.363Z,72.30
2018-11-07T07:11:00.090Z,71.62
2018-11-07T07:13:05.084Z,71.31
2018-11-07T07:15:12.865Z,71.46
2018-11-07T07:17:17.659Z,71.28
2018-11-07T07:19:22.322Z,71.18
2018-11-07T07:21:27.195Z,70.71
2018-11-07T07:23:31.882Z,70.68
2018-11-07T07:25:36.658Z,70.25
2018-11-07T07:27:42.954Z,70.70
2018-11-07T07:29:47.624Z,70.90
2018-11-07T07:31:52.457Z,70.52
2018-11-07T07:33:57.194Z,70.66
2018-11-07T07:36:01.858Z,70.92
2018-11-07T07:38:07.108Z,70.99
2018-11-07T07:40:13.580Z,71.10
2018-11-07T07:42:18.299Z,71.16
2018-11-07T07:44:23.062Z,71.33
2018-11-07T07:46:28.006Z,70.94
2018-11-07T07:48:32.786Z,71.27
2018-11-07T07:50:37.547Z,70.86
2018-11-07T07:52:43.331Z,70.46
2018-11-07T07:54:48.078Z,70.33
2018-11-07T07:56:52.895Z,70.27
2018-11-07T07:58:57.694Z,69.55
2018-11-07T08:01:02.369Z,68.62
2018-11-07T08:03:07.237Z,68.24
2018-11-07T08:05:12.042Z,68.35
2018-11-07T08:07:16.784Z,68.06
2018-11-07T08:09:21.508Z,67.74
2018-11-07T08:11:26.189Z,67.92
2018-11-07T08:13:31.048Z,68.00
2018-11-07T08:15:36.003Z,67.23
2018-11-07T08:17:41.768Z,66.81
2018-11-07T08:19:46.417Z,67.00
2018-11-07T08:21:51.258Z,67.45
2018-11-07T08:23:56.262Z,66.80
2018-11-07T08:26:01.396Z,66.70
2018-11-07T08:28:06.468Z,66.31
2018-11-07T08:30:18.585Z,66.27
2018-11-07T08:32:23.165Z,66.04
2018-11-07T08:34:27.927Z,65.92
2018-11-07T08:36:32.710Z,65.38
2018-11-07T08:38:37.594Z,65.39
2018-11-07T08:40:42.394Z,65.54
2018-11-07T08:42:47.406Z,64.75
2018-11-07T08:44:52.178Z,65.04
2018-11-07T08:46:56.902Z,64.89
2018-11-07T08:49:01.578Z,64.85
2018-11-07T08:51:06.597Z,64.54
2018-11-07T08:53:11.630Z,64.57
2018-11-07T08:55:17.954Z,64.52
2018-11-07T08:57:22.778Z,64.66
2018-11-07T08:59:27.484Z,64.43
2018-11-07T09:01:32.393Z,64.34
2018-11-07T09:03:37.228Z,63.56
2018-11-07T09:05:42.047Z,63.87
2018-11-07T09:07:47.340Z,63.50
2018-11-07T09:09:52.471Z,63.65
2018-11-07T09:11:57.184Z,63.07
2018-11-07T09:14:01.921Z,63.07
2018-11-07T09:16:06.899Z,61.96
2018-11-07T09:18:11.811Z,62.37
2018-11-07T09:20:23.810Z,62.45
2018-11-07T09:22:28.633Z,61.79
2018-11-07T09:24:33.444Z,62.25
2018-11-07T09:26:38.780Z,61.29
2018-11-07T09:28:43.475Z,61.55
2018-11-07T09:30:48.134Z,61.33
2018-11-07T09:32:52.953Z,61.50
2018-11-07T09:34:57.988Z,61.12
2018-11-07T09:37:02.958Z,60.56
2018-11-07T09:39:10.027Z,60.35
2018-11-07T09:41:14.859Z,59.82
2018-11-07T09:43:19.531Z,59.48
2018-11-07T09:45:25.621Z,58.98
2018-11-07T09:47:30.461Z,58.88
2018-11-07T09:49:35.115Z,58.38
2018-11-07T09:51:39.794Z,57.68
2018-11-07T09:53:44.578Z,57.54
2018-11-07T09:55:49.871Z,57.43
2018-11-07T09:57:54.880Z,56.59
2018-11-07T09:59:59.992Z,56.30
2018-11-07T10:02:04.939Z,55.89
2018-11-07T10:04:09.624Z,55.77
2018-11-07T10:06:14.343Z,55.94
2018-11-07T10:08:19.201Z,56.07
2018-11-07T10:10:23.963Z,55.95
2018-11-07T10:12:29.474Z,56.16
2018-11-07T10:14:34.250Z,56.23
2018-11-07T10:16:38.948Z,56.02
2018-11-07T10:18:43.710Z,56.06
2018-11-07T10:20:48.596Z,55.78
2018-11-07T10:22:53.372Z,55.63
2018-11-07T10:24:58.182Z,54.69
2018-11-07T10:27:03.090Z,54.64
2018-11-07T10:29:07.983Z,55.85
2018-11-07T10:31:12.483Z,54.93
2018-11-07T10:33:17.279Z,54.66
2018-11-07T10:35:21.974Z,54.36
2018-11-07T10:37:32.367Z,53.74
2018-11-07T10:39:31.571Z,54.04
2018-11-07T10:41:36.455Z,52.50
2018-11-07T10:43:41.278Z,53.24
2018-11-07T10:45:46.146Z,53.05
2018-11-07T10:47:51.450Z,52.70
2018-11-07T10:49:56.192Z,52.72
2018-11-07T10:52:00.937Z,53.50
2018-11-07T10:54:05.767Z,53.29
2018-11-07T10:56:10.518Z,53.51
2018-11-07T10:58:15.278Z,53.33
2018-11-07T11:00:25.094Z,53.43
2018-11-07T11:02:34.924Z,53.43
2018-11-07T11:04:39.657Z,53.03
2018-11-07T11:06:44.367Z,52.72
2018-11-07T11:08:49.171Z,51.97
2018-11-07T11:10:54.098Z,52.57
2018-11-07T11:12:58.832Z,52.31
2018-11-07T11:15:03.700Z,52.52
2018-11-07T11:17:08.673Z,51.50
2018-11-07T11:19:13.421Z,51.34
2018-11-07T11:21:18.179Z,50.92
2018-11-07T11:23:23.071Z,51.22
2018-11-07T11:25:28.025Z,51.61
2018-11-07T11:27:33.212Z,50.55
2018-11-07T11:29:38.488Z,50.81
2018-11-07T11:31:43.332Z,50.38
2018-11-07T11:33:48.417Z,50.99
2018-11-07T11:35:53.397Z,50.87
2018-11-07T11:37:58.328Z,50.81
2018-11-07T11:40:03.260Z,51.33
2018-11-07T11:42:08.195Z,50.48
2018-11-07T11:44:13.035Z,50.38
2018-11-07T11:46:17.881Z,50.53
2018-11-07T11:48:22.760Z,50.46
2018-11-07T11:50:27.647Z,50.29
2018-11-07T11:52:32.434Z,50.84
2018-11-07T11:54:37.293Z,51.50
2018-11-07T11:56:42.185Z,50.75
2018-11-07T11:58:47.090Z,50.90
2018-11-07T12:00:51.881Z,50.26
2018-11-07T12:02:56.757Z,50.20
2018-11-07T12:05:01.545Z,49.92
2018-11-07T12:07:06.483Z,49.19
2018-11-07T12:09:11.726Z,49.31
2018-11-07T12:11:16.481Z,49.59
2018-11-07T12:13:21.286Z,49.91
2018-11-07T12:15:27.393Z,49.30
2018-11-07T12:17:32.333Z,49.66
2018-11-07T12:19:37.065Z,50.55
2018-11-07T12:21:41.985Z,50.58
2018-11-07T12:23:46.826Z,51.30
2018-11-07T12:25:51.713Z,50.00
2018-11-07T12:27:56.751Z,50.11
2018-11-07T12:30:01.610Z,50.48
2018-11-07T12:32:06.476Z,51.10
2018-11-07T12:34:11.306Z,51.26
2018-11-07T12:36:16.358Z,49.92
2018-11-07T12:38:21.316Z,49.18
2018-11-07T12:40:25.993Z,48.12
2018-11-07T12:42:30.822Z,47.96
2018-11-07T12:44:35.639Z,48.04
2018-11-07T12:46:40.391Z,46.99
2018-11-07T12:48:45.447Z,47.63
2018-11-07T12:50:50.534Z,47.40
2018-11-07T12:52:55.306Z,46.94
2018-11-07T12:55:00.090Z,46.75
2018-11-07T12:57:05.022Z,46.63
2018-11-07T12:59:09.775Z,47.21
2018-11-07T13:01:14.575Z,47.11
2018-11-07T13:03:19.396Z,47.41
2018-11-07T13:05:25.194Z,46.56
2018-11-07T13:07:29.971Z,47.18
2018-11-07T13:09:35.031Z,46.73
2018-11-07T13:11:40.796Z,46.96
2018-11-07T13:13:45.525Z,46.35
2018-11-07T13:15:50.402Z,46.71
2018-11-07T13:17:55.203Z,46.94
2018-11-07T13:19:59.923Z,46.93
2018-11-07T13:22:05.057Z,47.05
2018-11-07T13:24:09.975Z,46.74
2018-11-07T13:26:14.808Z,46.48
2018-11-07T13:28:19.896Z,46.97
2018-11-07T13:30:24.774Z,46.81
2018-11-07T13:32:29.578Z,46.65
2018-11-07T13:34:34.538Z,47.72
2018-11-07T13:36:39.726Z,47.84
2018-11-07T13:38:45.122Z,47.28
2018-11-07T13:40:49.602Z,47.71
2018-11-07T13:42:54.311Z,48.04
2018-11-07T13:44:59.059Z,48.28
2018-11-07T13:47:03.815Z,48.59
2018-11-07T13:49:08.901Z,48.41
2018-11-07T13:51:13.674Z,48.59
2018-11-07T13:53:18.639Z,48.03
2018-11-07T13:55:23.425Z,48.56
2018-11-07T13:57:28.196Z,48.69
2018-11-07T13:59:33.060Z,49.10
2018-11-07T14:01:37.870Z,48.67
2018-11-07T14:03:42.532Z,48.82
2018-11-07T14:05:47.658Z,48.91
2018-11-07T14:07:53.227Z,49.10
2018-11-07T14:09:58.154Z,48.78
2018-11-07T14:12:03.055Z,49.22
2018-11-07T14:14:08.245Z,49.52
2018-11-07T14:16:13.104Z,49.85
2018-11-07T14:18:17.969Z,49.63
2018-11-07T14:20:22.924Z,49.56
2018-11-07T14:22:27.682Z,49.27
2018-11-07T14:24:32.464Z,49.87
2018-11-07T14:26:37.399Z,49.18
2018-11-07T14:28:42.423Z,49.83
2018-11-07T14:30:47.405Z,49.06
2018-11-07T14:32:58.705Z,49.84
2018-11-07T14:35:03.388Z,49.75
2018-11-07T14:37:08.216Z,49.96
2018-11-07T14:39:13.004Z,49.39
2018-11-07T14:41:17.780Z,49.20
2018-11-07T14:43:28.997Z,49.21
2018-11-07T14:45:34.276Z,49.53
2018-11-07T14:47:39.757Z,49.78
2018-11-07T14:49:45.542Z,49.90
2018-11-07T14:51:50.595Z,49.72
2018-11-07T14:53:56.181Z,49.66
2018-11-07T14:56:01.146Z,50.07
2018-11-07T14:58:06.178Z,49.84
2018-11-07T15:00:13.627Z,49.87
2018-11-07T15:02:18.411Z,49.57
2018-11-07T15:04:23.644Z,50.32
2018-11-07T15:06:29.165Z,49.99
2018-11-07T15:08:34.232Z,49.43
2018-11-07T15:10:38.976Z,49.96
2018-11-07T15:12:44.233Z,50.60
2018-11-07T15:14:48.985Z,50.89
2018-11-07T15:16:54.731Z,51.77
2018-11-07T15:18:59.505Z,51.48
2018-11-07T15:21:04.269Z,52.23
2018-11-07T15:23:09.146Z,53.27
2018-11-07T15:25:14.993Z,53.82
2018-11-07T15:27:19.962Z,55.11
2018-11-07T15:29:25.168Z,55.74
2018-11-07T15:31:30.024Z,56.98
2018-11-07T15:33:35.116Z,58.61
2018-11-07T15:35:39.861Z,58.93
2018-11-07T15:37:44.670Z,60.11
2018-11-07T15:39:49.384Z,60.98
2018-11-07T15:41:54.279Z,61.48
2018-11-07T15:43:59.030Z,62.16
2018-11-07T15:46:03.966Z,62.81
2018-11-07T15:48:08.645Z,62.69
2018-11-07T15:50:18.612Z,63.21
2018-11-07T15:52:23.539Z,63.00
2018-11-07T15:54:28.393Z,63.58
2018-11-07T15:56:33.371Z,63.83
2018-11-07T15:58:38.405Z,64.35
2018-11-07T16:00:43.195Z,64.59
2018-11-07T16:02:47.952Z,64.93
2018-11-07T16:04:54.870Z,65.48
2018-11-07T16:06:59.614Z,65.86
2018-11-07T16:09:04.914Z,66.10
2018-11-07T16:11:09.801Z,66.21
2018-11-07T16:13:15.107Z,66.25
2018-11-07T16:15:19.996Z,66.21
2018-11-07T16:17:24.996Z,65.94
2018-11-07T16:19:30.125Z,66.20
2018-11-07T16:21:35.192Z,66.00
2018-11-07T16:23:40.001Z,66.27
2018-11-07T16:25:44.833Z,65.89
2018-11-07T16:27:49.623Z,65.26
2018-11-07T16:29:54.752Z,65.45
2018-11-07T16:31:59.498Z,65.38
2018-11-07T16:34:04.380Z,65.34
2018-11-07T16:36:09.417Z,65.51
2018-11-07T16:38:14.480Z,64.86
2018-11-07T16:40:20.355Z,64.60
2018-11-07T16:42:25.272Z,64.85
2018-11-07T16:44:30.223Z,64.51
2018-11-07T16:46:35.156Z,64.55
2018-11-07T16:48:40.173Z,64.87
2018-11-07T16:50:45.182Z,64.48
2018-11-07T16:52:50.093Z,64.46
2018-11-07T16:54:55.064Z,64.56
2018-11-07T16:57:00.136Z,64.37
2018-11-07T16:59:05.436Z,64.98
2018-11-07T17:01:10.831Z,64.95
2018-11-07T17:03:15.787Z,65.26
2018-11-07T17:05:22.263Z,65.16
2018-11-07T17:07:27.176Z,65.46
2018-11-07T17:09:32.207Z,65.46
2018-11-07T17:11:37.297Z,65.95
2018-11-07T17:13:42.194Z,66.24
2018-11-07T17:15:47.479Z,66.47
2018-11-07T17:17:52.324Z,66.74
2018-11-07T17:19:57.241Z,67.01
2018-11-07T17:22:02.013Z,67.16
2018-11-07T17:24:07.123Z,67.38
2018-11-07T17:26:11.702Z,67.29
2018-11-07T17:28:16.474Z,67.50
2018-11-07T17:30:21.325Z,67.31
2018-11-07T17:32:26.061Z,67.16
2018-11-07T17:34:30.793Z,66.84
2018-11-07T17:36:35.659Z,66.56
2018-11-07T17:38:40.693Z,66.35
2018-11-07T17:40:45.399Z,66.32
2018-11-07T17:42:51.220Z,66.22
2018-11-07T17:44:56.780Z,65.62
2018-11-07T17:47:02.298Z,64.77
2018-11-07T17:49:07.070Z,64.35
2018-11-07T17:51:11.969Z,64.56
2018-11-07T17:53:16.841Z,64.10
2018-11-07T17:55:22.348Z,63.87
2018-11-07T17:57:27.163Z,63.04
2018-11-07T17:59:32.942Z,63.16
2018-11-07T18:01:37.797Z,62.85
2018-11-07T18:03:43.020Z,62.87
2018-11-07T18:05:47.829Z,62.80
2018-11-07T18:07:52.777Z,62.85
2018-11-07T18:09:57.742Z,63.11
2018-11-07T18:12:08.223Z,63.14
2018-11-07T18:14:13.330Z,63.08
2018-11-07T18:16:18.703Z,63.72
2018-11-07T18:18:23.950Z,63.35
2018-11-07T18:20:28.907Z,62.75
2018-11-07T18:22:34.416Z,63.39
2018-11-07T18:24:39.335Z,63.64
2018-11-07T18:26:44.270Z,64.01
2018-11-07T18:28:49.978Z,64.09
2018-11-07T18:30:55.932Z,63.70
2018-11-07T18:33:00.773Z,64.24
2018-11-07T18:35:12.683Z,64.07
2018-11-07T18:37:17.998Z,64.62
2018-11-07T18:39:24.550Z,64.95
2018-11-07T18:41:29.825Z,65.16
2018-11-07T18:43:34.945Z,65.14
2018-11-07T18:47:57.058Z,64.86
2018-11-07T18:50:02.371Z,65.25
2018-11-07T18:52:07.306Z,64.68
2018-11-07T18:54:12.393Z,65.03
2018-11-07T18:56:17.391Z,65.11
2018-11-07T18:58:22.940Z,65.37
2018-11-07T19:00:27.886Z,65.60
2018-11-07T19:02:33.003Z,65.14
2018-11-07T19:04:38.141Z,64.66
2018-11-07T19:06:43.567Z,65.19
2018-11-07T19:08:48.433Z,64.73
2018-11-07T19:10:53.329Z,65.41
2018-11-07T19:12:58.385Z,65.38
2018-11-07T19:15:03.338Z,65.37
2018-11-07T19:17:09.678Z,65.33
2018-11-07T19:19:17.583Z,65.63
2018-11-07T19:21:24.047Z,65.76
2018-11-07T19:23:30.336Z,65.65
2018-11-07T19:25:35.552Z,65.62
2018-11-07T19:27:41.707Z,65.62
2018-11-07T19:29:48.419Z,65.38
2018-11-07T19:31:56.303Z,65.45
2018-11-07T19:34:02.364Z,65.45
2018-11-07T19:36:12.229Z,65.41
2018-11-07T19:40:42.141Z,65.79
2018-11-07T19:42:50.005Z,65.48
2018-11-07T19:44:56.892Z,65.77
2018-11-07T19:49:24.627Z,64.92
2018-11-07T19:51:36.942Z,65.45
2018-11-07T19:53:47.292Z,65.72
2018-11-07T19:55:58.361Z,65.81
2018-11-07T19:58:19.512Z,65.86
2018-11-07T20:00:33.373Z,65.93
2018-11-07T20:02:41.363Z,66.32
2018-11-07T20:04:52.505Z,66.20
2018-11-07T20:07:02.301Z,66.25
2018-11-07T20:09:13.565Z,66.01
2018-11-07T20:11:21.026Z,66.36
2018-11-07T20:13:27.823Z,66.11
2018-11-07T20:15:38.620Z,66.02
2018-11-07T20:17:47.139Z,66.23
2018-11-07T20:19:54.605Z,66.61
2018-11-07T20:22:03.391Z,66.72
2018-11-07T20:24:11.027Z,66.99
2018-11-07T20:26:16.980Z,67.07
2018-11-07T20:28:23.401Z,67.07
2018-11-07T20:30:29.986Z,66.87
2018-11-07T20:32:35.977Z,66.57
2018-11-07T20:34:42.561Z,66.92
2018-11-07T20:36:47.750Z,67.08
2018-11-07T20:38:59.096Z,66.97
2018-11-07T20:41:08.589Z,66.69
2018-11-07T20:43:14.672Z,67.09
2018-11-07T20:45:21.604Z,66.82
2018-11-07T20:47:30.161Z,66.51
2018-11-07T20:49:36.924Z,66.78
2018-11-07T20:51:44.154Z,66.98
2018-11-07T20:53:54.238Z,67.30
2018-11-07T20:56:03.592Z,67.07
2018-11-07T20:58:13.317Z,67.01
2018-11-07T21:00:26.992Z,67.40
2018-11-07T21:02:33.738Z,67.24
2018-11-07T21:04:41.312Z,67.50
2018-11-07T21:06:49.409Z,67.20
2018-11-07T21:08:56.909Z,67.41
2018-11-07T21:11:09.280Z,67.44
2018-11-07T21:13:17.940Z,67.39
2018-11-07T21:15:26.579Z,67.77
2018-11-07T21:17:35.113Z,67.60
2018-11-07T21:19:41.422Z,68.18
2018-11-07T21:21:50.368Z,68.05
2018-11-07T21:23:59.046Z,68.05
2018-11-07T21:26:05.268Z,68.03
2018-11-07T21:28:10.655Z,67.93
2018-11-07T21:30:16.486Z,67.33
2018-11-07T21:32:22.700Z,67.92
2018-11-07T21:34:28.275Z,67.91
2018-11-07T21:36:39.154Z,68.00
2018-11-07T21:38:49.065Z,68.32
2018-11-07T21:40:54.675Z,68.12
2018-11-07T21:43:00.240Z,68.09
2018-11-07T21:45:05.993Z,67.79
2018-11-07T21:47:11.959Z,67.76
2018-11-07T21:49:18.333Z,67.81
2018-11-07T21:51:27.648Z,67.67
2018-11-07T21:53:32.866Z,67.81
2018-11-07T21:55:37.766Z,67.79
2018-11-07T21:57:42.662Z,68.15
2018-11-07T21:59:47.453Z,68.30
2018-11-07T22:01:52.224Z,68.69
2018-11-07T22:03:57.053Z,68.56
2018-11-07T22:06:01.907Z,68.88
2018-11-07T22:08:06.966Z,68.99
2018-11-07T22:10:12.795Z,68.71
2018-11-07T22:12:17.584Z,69.06
2018-11-07T22:14:22.528Z,68.81
2018-11-07T22:16:27.382Z,68.79
2018-11-07T22:18:32.161Z,68.87
2018-11-07T22:20:36.982Z,69.31
2018-11-07T22:22:41.961Z,69.20
2018-11-07T22:24:46.718Z,69.39
2018-11-07T22:26:51.721Z,69.26
2018-11-07T22:28:56.483Z,69.12
2018-11-07T22:31:01.436Z,69.52
2018-11-07T22:33:06.308Z,69.38
2018-11-07T22:35:14.484Z,69.14
2018-11-07T22:37:19.497Z,68.69
2018-11-07T22:39:24.282Z,69.17
2018-11-07T22:41:29.121Z,69.55
2018-11-07T22:43:34.211Z,69.10
2018-11-07T22:45:39.330Z,69.49
2018-11-07T22:47:44.186Z,69.01
2018-11-07T22:49:49.118Z,68.80
2018-11-07T22:51:53.839Z,68.81
2018-11-07T22:53:58.790Z,68.86
2018-11-07T22:56:03.708Z,68.78
2018-11-07T22:58:08.495Z,69.08
2018-11-07T23:00:22.043Z,68.75
2018-11-07T23:02:27.487Z,68.98
2018-11-07T23:04:32.434Z,68.68
2018-11-07T23:06:38.162Z,68.73
2018-11-07T23:08:43.117Z,68.84
2018-11-07T23:10:47.858Z,69.00
2018-11-07T23:12:52.636Z,68.80
2018-11-07T23:14:57.545Z,69.11
2018-11-07T23:17:02.325Z,68.89
2018-11-07T23:19:08.342Z,69.02
2018-11-07T23:21:13.533Z,68.92
2018-11-07T23:23:20.145Z,68.84
2018-11-07T23:25:25.209Z,68.83
2018-11-07T23:27:32.832Z,68.84
2018-11-07T23:29:38.117Z,69.11
2018-11-07T23:31:43.760Z,69.35
2018-11-07T23:33:48.829Z,69.40
2018-11-07T23:35:54.422Z,69.49
2018-11-07T23:37:59.382Z,69.50
2018-11-07T23:40:04.370Z,69.70
2018-11-07T23:42:09.242Z,69.67
2018-11-07T23:44:14.189Z,69.52
2018-11-07T23:46:19.232Z,69.54
2018-11-07T23:48:24.161Z,69.76
2018-11-07T23:50:29.076Z,69.80
2018-11-07T23:52:38.949Z,69.29
2018-11-07T23:54:43.915Z,69.56
2018-11-07T23:56:49.084Z,69.44
2018-11-07T23:58:53.993Z,69.25
